sensor_id;sensor_type;location;lat;lon;timestamp;P1;durP1;ratioP1;P2;durP2;ratioP2
12437;SDS011;6283;51.330;12.374;2023-08-20T00:00:24;10.40;;;5.88;;
12437;SDS011;6283;51.330;12.374;2023-08-20T00:02:51;8.88;;;6.03;;
12437;SDS011;6283;51.330;12.374;2023-08-20T00:05:34;6.68;;;6.03;;
12437;SDS011;6283;51.330;12.374;2023-08-20T00:08:00;7.32;;;5.78;;
12437;SDS011;6283;51.330;12.374;2023-08-20T00:10:25;8.20;;;6.13;;
12437;SDS011;6283;51.330;12.374;2023-08-20T00:12:51;8.32;;;6.10;;
12437;SDS011;6283;51.330;12.374;2023-08-20T00:15:17;7.32;;;5.72;;
12437;SDS011;6283;51.330;12.374;2023-08-20T00:17:44;7.63;;;6.82;;
12437;SDS011;6283;51.330;12.374;2023-08-20T00:20:10;7.55;;;5.95;;
12437;SDS011;6283;51.330;12.374;2023-08-20T00:22:40;6.68;;;6.05;;
12437;SDS011;6283;51.330;12.374;2023-08-20T00:25:10;7.38;;;6.50;;
12437;SDS011;6283;51.330;12.374;2023-08-20T00:27:37;9.95;;;6.53;;
12437;SDS011;6283;51.330;12.374;2023-08-20T00:30:03;9.60;;;6.45;;
12437;SDS011;6283;51.330;12.374;2023-08-20T00:32:30;7.97;;;6.45;;
12437;SDS011;6283;51.330;12.374;2023-08-20T00:34:55;9.13;;;6.53;;
12437;SDS011;6283;51.330;12.374;2023-08-20T00:37:21;8.10;;;6.50;;
12437;SDS011;6283;51.330;12.374;2023-08-20T00:39:47;10.68;;;7.40;;
12437;SDS011;6283;51.330;12.374;2023-08-20T00:42:12;7.47;;;6.32;;
12437;SDS011;6283;51.330;12.374;2023-08-20T00:44:39;10.48;;;6.28;;
12437;SDS011;6283;51.330;12.374;2023-08-20T00:47:06;7.47;;;6.63;;
12437;SDS011;6283;51.330;12.374;2023-08-20T00:49:33;8.90;;;6.63;;
12437;SDS011;6283;51.330;12.374;2023-08-20T00:51:59;8.40;;;6.40;;
12437;SDS011;6283;51.330;12.374;2023-08-20T00:54:25;7.53;;;6.45;;
12437;SDS011;6283;51.330;12.374;2023-08-20T00:56:52;8.10;;;6.40;;
12437;SDS011;6283;51.330;12.374;2023-08-20T00:59:18;8.85;;;6.55;;
12437;SDS011;6283;51.330;12.374;2023-08-20T01:01:45;7.50;;;6.20;;
12437;SDS011;6283;51.330;12.374;2023-08-20T01:04:10;7.85;;;6.65;;
12437;SDS011;6283;51.330;12.374;2023-08-20T01:11:59;9.40;;;6.95;;
12437;SDS011;6283;51.330;12.374;2023-08-20T01:14:27;7.32;;;6.53;;
12437;SDS011;6283;51.330;12.374;2023-08-20T01:16:53;8.65;;;6.03;;
12437;SDS011;6283;51.330;12.374;2023-08-20T01:19:19;9.10;;;6.63;;
12437;SDS011;6283;51.330;12.374;2023-08-20T01:30:13;9.95;;;6.60;;
12437;SDS011;6283;51.330;12.374;2023-08-20T01:32:39;10.95;;;6.63;;
12437;SDS011;6283;51.330;12.374;2023-08-20T01:35:12;10.27;;;7.35;;
12437;SDS011;6283;51.330;12.374;2023-08-20T01:37:38;9.10;;;7.82;;
12437;SDS011;6283;51.330;12.374;2023-08-20T01:40:05;10.98;;;7.78;;
12437;SDS011;6283;51.330;12.374;2023-08-20T01:42:32;8.35;;;7.32;;
12437;SDS011;6283;51.330;12.374;2023-08-20T01:44:58;9.18;;;8.30;;
12437;SDS011;6283;51.330;12.374;2023-08-20T01:47:23;11.75;;;10.05;;
12437;SDS011;6283;51.330;12.374;2023-08-20T01:49:49;11.77;;;10.60;;
12437;SDS011;6283;51.330;12.374;2023-08-20T01:52:15;11.75;;;10.63;;
12437;SDS011;6283;51.330;12.374;2023-08-20T01:54:40;14.85;;;11.63;;
12437;SDS011;6283;51.330;12.374;2023-08-20T01:57:06;13.20;;;11.68;;
12437;SDS011;6283;51.330;12.374;2023-08-20T01:59:31;14.77;;;13.27;;
12437;SDS011;6283;51.330;12.374;2023-08-20T02:01:57;16.25;;;12.43;;
12437;SDS011;6283;51.330;12.374;2023-08-20T02:04:22;15.65;;;13.38;;
12437;SDS011;6283;51.330;12.374;2023-08-20T02:06:48;14.13;;;12.38;;
12437;SDS011;6283;51.330;12.374;2023-08-20T02:09:14;15.90;;;14.18;;
12437;SDS011;6283;51.330;12.374;2023-08-20T02:11:39;15.90;;;14.07;;
12437;SDS011;6283;51.330;12.374;2023-08-20T02:14:05;15.25;;;13.73;;
12437;SDS011;6283;51.330;12.374;2023-08-20T02:16:31;14.77;;;13.02;;
12437;SDS011;6283;51.330;12.374;2023-08-20T02:18:57;15.23;;;13.13;;
12437;SDS011;6283;51.330;12.374;2023-08-20T02:21:22;13.98;;;12.48;;
12437;SDS011;6283;51.330;12.374;2023-08-20T02:23:48;17.55;;;14.60;;
12437;SDS011;6283;51.330;12.374;2023-08-20T02:26:13;17.13;;;14.57;;
12437;SDS011;6283;51.330;12.374;2023-08-20T02:28:40;17.73;;;15.65;;
12437;SDS011;6283;51.330;12.374;2023-08-20T02:31:05;17.33;;;14.90;;
12437;SDS011;6283;51.330;12.374;2023-08-20T02:33:31;17.27;;;14.52;;
12437;SDS011;6283;51.330;12.374;2023-08-20T02:36:00;17.67;;;15.00;;
12437;SDS011;6283;51.330;12.374;2023-08-20T02:38:28;15.80;;;14.05;;
12437;SDS011;6283;51.330;12.374;2023-08-20T02:40:53;15.05;;;13.48;;
12437;SDS011;6283;51.330;12.374;2023-08-20T02:43:19;18.63;;;14.18;;
12437;SDS011;6283;51.330;12.374;2023-08-20T02:45:44;16.00;;;13.63;;
12437;SDS011;6283;51.330;12.374;2023-08-20T02:48:10;18.02;;;14.45;;
12437;SDS011;6283;51.330;12.374;2023-08-20T02:50:37;14.93;;;13.23;;
12437;SDS011;6283;51.330;12.374;2023-08-20T02:53:03;17.05;;;14.23;;
12437;SDS011;6283;51.330;12.374;2023-08-20T02:55:29;17.80;;;13.73;;
12437;SDS011;6283;51.330;12.374;2023-08-20T02:57:56;16.65;;;14.25;;
12437;SDS011;6283;51.330;12.374;2023-08-20T03:00:22;15.57;;;13.98;;
12437;SDS011;6283;51.330;12.374;2023-08-20T03:02:47;16.02;;;14.40;;
12437;SDS011;6283;51.330;12.374;2023-08-20T03:05:13;16.05;;;14.35;;
12437;SDS011;6283;51.330;12.374;2023-08-20T03:07:39;17.10;;;15.32;;
12437;SDS011;6283;51.330;12.374;2023-08-20T03:10:05;16.92;;;14.23;;
12437;SDS011;6283;51.330;12.374;2023-08-20T03:12:31;17.35;;;15.05;;
12437;SDS011;6283;51.330;12.374;2023-08-20T03:14:57;18.85;;;15.13;;
12437;SDS011;6283;51.330;12.374;2023-08-20T03:17:24;17.25;;;14.63;;
12437;SDS011;6283;51.330;12.374;2023-08-20T03:19:54;16.95;;;14.70;;
12437;SDS011;6283;51.330;12.374;2023-08-20T03:22:24;16.55;;;13.43;;
12437;SDS011;6283;51.330;12.374;2023-08-20T03:24:50;14.90;;;13.05;;
12437;SDS011;6283;51.330;12.374;2023-08-20T03:27:16;16.25;;;13.52;;
12437;SDS011;6283;51.330;12.374;2023-08-20T03:29:42;15.18;;;12.60;;
12437;SDS011;6283;51.330;12.374;2023-08-20T03:32:08;15.02;;;13.43;;
12437;SDS011;6283;51.330;12.374;2023-08-20T03:34:34;16.88;;;13.63;;
12437;SDS011;6283;51.330;12.374;2023-08-20T03:37:00;15.25;;;13.68;;
12437;SDS011;6283;51.330;12.374;2023-08-20T03:39:26;20.42;;;14.20;;
12437;SDS011;6283;51.330;12.374;2023-08-20T03:41:51;18.00;;;14.65;;
12437;SDS011;6283;51.330;12.374;2023-08-20T03:44:18;17.80;;;14.30;;
12437;SDS011;6283;51.330;12.374;2023-08-20T03:46:44;15.85;;;13.75;;
12437;SDS011;6283;51.330;12.374;2023-08-20T03:49:09;17.98;;;14.48;;
12437;SDS011;6283;51.330;12.374;2023-08-20T03:51:35;18.08;;;15.18;;
12437;SDS011;6283;51.330;12.374;2023-08-20T03:54:01;16.38;;;13.35;;
12437;SDS011;6283;51.330;12.374;2023-08-20T03:56:27;15.35;;;13.40;;
12437;SDS011;6283;51.330;12.374;2023-08-20T03:58:53;16.40;;;14.63;;
12437;SDS011;6283;51.330;12.374;2023-08-20T04:01:19;19.38;;;16.13;;
12437;SDS011;6283;51.330;12.374;2023-08-20T04:03:47;30.27;;;17.40;;
12437;SDS011;6283;51.330;12.374;2023-08-20T04:06:13;23.33;;;17.52;;
12437;SDS011;6283;51.330;12.374;2023-08-20T04:08:39;21.15;;;16.58;;
12437;SDS011;6283;51.330;12.374;2023-08-20T04:11:05;23.05;;;17.25;;
12437;SDS011;6283;51.330;12.374;2023-08-20T04:13:31;22.95;;;17.80;;
12437;SDS011;6283;51.330;12.374;2023-08-20T04:15:56;27.00;;;18.52;;
12437;SDS011;6283;51.330;12.374;2023-08-20T04:18:22;25.73;;;19.27;;
12437;SDS011;6283;51.330;12.374;2023-08-20T04:20:51;32.03;;;20.20;;
12437;SDS011;6283;51.330;12.374;2023-08-20T04:23:17;28.73;;;21.08;;
12437;SDS011;6283;51.330;12.374;2023-08-20T04:25:44;31.75;;;20.90;;
12437;SDS011;6283;51.330;12.374;2023-08-20T04:28:10;29.15;;;21.65;;
12437;SDS011;6283;51.330;12.374;2023-08-20T04:30:37;33.17;;;21.92;;
12437;SDS011;6283;51.330;12.374;2023-08-20T04:33:03;32.85;;;23.48;;
12437;SDS011;6283;51.330;12.374;2023-08-20T04:35:29;31.52;;;22.60;;
12437;SDS011;6283;51.330;12.374;2023-08-20T04:37:54;35.50;;;23.45;;
12437;SDS011;6283;51.330;12.374;2023-08-20T04:40:20;38.33;;;26.13;;
12437;SDS011;6283;51.330;12.374;2023-08-20T04:42:45;36.33;;;24.20;;
12437;SDS011;6283;51.330;12.374;2023-08-20T04:45:11;39.53;;;25.20;;
12437;SDS011;6283;51.330;12.374;2023-08-20T04:47:37;38.50;;;26.58;;
12437;SDS011;6283;51.330;12.374;2023-08-20T04:50:03;40.35;;;25.75;;
12437;SDS011;6283;51.330;12.374;2023-08-20T04:52:32;36.05;;;26.85;;
12437;SDS011;6283;51.330;12.374;2023-08-20T04:54:58;32.72;;;23.60;;
12437;SDS011;6283;51.330;12.374;2023-08-20T04:57:24;38.70;;;25.35;;
12437;SDS011;6283;51.330;12.374;2023-08-20T04:59:50;36.67;;;24.67;;
12437;SDS011;6283;51.330;12.374;2023-08-20T05:02:16;34.00;;;24.50;;
12437;SDS011;6283;51.330;12.374;2023-08-20T05:04:41;37.13;;;25.48;;
12437;SDS011;6283;51.330;12.374;2023-08-20T05:07:07;34.75;;;25.08;;
12437;SDS011;6283;51.330;12.374;2023-08-20T05:09:33;35.65;;;25.80;;
12437;SDS011;6283;51.330;12.374;2023-08-20T05:11:59;38.25;;;25.42;;
12437;SDS011;6283;51.330;12.374;2023-08-20T05:14:24;39.05;;;25.00;;
12437;SDS011;6283;51.330;12.374;2023-08-20T05:16:50;39.85;;;26.35;;
12437;SDS011;6283;51.330;12.374;2023-08-20T05:19:15;38.85;;;26.80;;
12437;SDS011;6283;51.330;12.374;2023-08-20T05:21:41;35.40;;;25.10;;
12437;SDS011;6283;51.330;12.374;2023-08-20T05:24:07;37.70;;;25.52;;
12437;SDS011;6283;51.330;12.374;2023-08-20T05:26:33;37.97;;;25.42;;
12437;SDS011;6283;51.330;12.374;2023-08-20T05:28:59;37.65;;;26.65;;
12437;SDS011;6283;51.330;12.374;2023-08-20T05:31:24;36.20;;;25.77;;
12437;SDS011;6283;51.330;12.374;2023-08-20T05:33:50;37.10;;;26.02;;
12437;SDS011;6283;51.330;12.374;2023-08-20T05:36:16;38.10;;;27.75;;
12437;SDS011;6283;51.330;12.374;2023-08-20T05:38:41;35.60;;;25.33;;
12437;SDS011;6283;51.330;12.374;2023-08-20T05:41:08;34.10;;;25.48;;
12437;SDS011;6283;51.330;12.374;2023-08-20T05:43:33;38.15;;;25.15;;
12437;SDS011;6283;51.330;12.374;2023-08-20T05:46:01;33.10;;;23.80;;
12437;SDS011;6283;51.330;12.374;2023-08-20T05:48:27;34.75;;;24.35;;
12437;SDS011;6283;51.330;12.374;2023-08-20T05:50:53;34.80;;;24.83;;
12437;SDS011;6283;51.330;12.374;2023-08-20T05:53:18;32.67;;;25.17;;
12437;SDS011;6283;51.330;12.374;2023-08-20T05:55:44;31.85;;;23.58;;
12437;SDS011;6283;51.330;12.374;2023-08-20T05:58:10;33.35;;;25.23;;
12437;SDS011;6283;51.330;12.374;2023-08-20T06:00:36;29.35;;;23.65;;
12437;SDS011;6283;51.330;12.374;2023-08-20T06:03:01;31.60;;;23.30;;
12437;SDS011;6283;51.330;12.374;2023-08-20T06:05:27;31.70;;;23.42;;
12437;SDS011;6283;51.330;12.374;2023-08-20T06:07:52;32.20;;;23.95;;
12437;SDS011;6283;51.330;12.374;2023-08-20T06:10:18;32.60;;;25.00;;
12437;SDS011;6283;51.330;12.374;2023-08-20T06:12:44;29.20;;;22.65;;
12437;SDS011;6283;51.330;12.374;2023-08-20T06:15:09;26.25;;;21.67;;
12437;SDS011;6283;51.330;12.374;2023-08-20T06:17:35;30.63;;;22.48;;
12437;SDS011;6283;51.330;12.374;2023-08-20T06:20:00;29.50;;;23.92;;
12437;SDS011;6283;51.330;12.374;2023-08-20T06:22:26;29.65;;;21.88;;
12437;SDS011;6283;51.330;12.374;2023-08-20T06:24:52;27.13;;;22.65;;
12437;SDS011;6283;51.330;12.374;2023-08-20T06:27:17;26.65;;;20.52;;
12437;SDS011;6283;51.330;12.374;2023-08-20T06:29:43;27.17;;;20.75;;
12437;SDS011;6283;51.330;12.374;2023-08-20T06:32:08;24.73;;;21.02;;
12437;SDS011;6283;51.330;12.374;2023-08-20T06:34:34;24.95;;;20.25;;
12437;SDS011;6283;51.330;12.374;2023-08-20T06:37:01;24.08;;;20.00;;
12437;SDS011;6283;51.330;12.374;2023-08-20T06:39:27;21.55;;;18.42;;
12437;SDS011;6283;51.330;12.374;2023-08-20T06:41:52;23.15;;;19.02;;
12437;SDS011;6283;51.330;12.374;2023-08-20T06:44:18;22.92;;;19.30;;
12437;SDS011;6283;51.330;12.374;2023-08-20T06:46:43;21.77;;;18.48;;
12437;SDS011;6283;51.330;12.374;2023-08-20T06:49:09;22.13;;;18.30;;
12437;SDS011;6283;51.330;12.374;2023-08-20T06:51:34;24.35;;;19.13;;
12437;SDS011;6283;51.330;12.374;2023-08-20T06:54:01;24.45;;;18.67;;
12437;SDS011;6283;51.330;12.374;2023-08-20T06:56:27;23.65;;;18.90;;
12437;SDS011;6283;51.330;12.374;2023-08-20T06:58:53;22.20;;;17.00;;
12437;SDS011;6283;51.330;12.374;2023-08-20T07:01:19;23.40;;;17.10;;
12437;SDS011;6283;51.330;12.374;2023-08-20T07:03:45;22.25;;;16.88;;
12437;SDS011;6283;51.330;12.374;2023-08-20T07:06:10;20.00;;;16.63;;
12437;SDS011;6283;51.330;12.374;2023-08-20T07:08:37;20.00;;;16.63;;
12437;SDS011;6283;51.330;12.374;2023-08-20T07:11:04;22.10;;;17.30;;
12437;SDS011;6283;51.330;12.374;2023-08-20T07:13:30;19.73;;;17.02;;
12437;SDS011;6283;51.330;12.374;2023-08-20T07:15:56;23.25;;;16.75;;
12437;SDS011;6283;51.330;12.374;2023-08-20T07:18:21;21.77;;;16.25;;
12437;SDS011;6283;51.330;12.374;2023-08-20T07:20:47;19.05;;;15.95;;
12437;SDS011;6283;51.330;12.374;2023-08-20T07:23:13;19.38;;;15.25;;
12437;SDS011;6283;51.330;12.374;2023-08-20T07:25:39;19.17;;;14.93;;
12437;SDS011;6283;51.330;12.374;2023-08-20T07:28:06;18.05;;;14.50;;
12437;SDS011;6283;51.330;12.374;2023-08-20T07:30:32;14.75;;;13.02;;
12437;SDS011;6283;51.330;12.374;2023-08-20T07:32:58;17.13;;;13.32;;
12437;SDS011;6283;51.330;12.374;2023-08-20T07:35:24;14.55;;;13.05;;
12437;SDS011;6283;51.330;12.374;2023-08-20T07:37:50;16.20;;;13.70;;
12437;SDS011;6283;51.330;12.374;2023-08-20T07:40:15;13.55;;;12.02;;
12437;SDS011;6283;51.330;12.374;2023-08-20T07:42:41;14.93;;;13.32;;
12437;SDS011;6283;51.330;12.374;2023-08-20T07:45:08;17.67;;;14.32;;
12437;SDS011;6283;51.330;12.374;2023-08-20T07:47:37;15.15;;;13.25;;
12437;SDS011;6283;51.330;12.374;2023-08-20T07:50:03;15.23;;;12.82;;
12437;SDS011;6283;51.330;12.374;2023-08-20T07:52:30;14.15;;;11.55;;
12437;SDS011;6283;51.330;12.374;2023-08-20T07:54:56;12.73;;;11.02;;
12437;SDS011;6283;51.330;12.374;2023-08-20T07:57:22;12.45;;;10.70;;
12437;SDS011;6283;51.330;12.374;2023-08-20T07:59:48;10.82;;;9.27;;
12437;SDS011;6283;51.330;12.374;2023-08-20T08:02:14;11.13;;;9.90;;
12437;SDS011;6283;51.330;12.374;2023-08-20T08:04:42;10.50;;;8.93;;
12437;SDS011;6283;51.330;12.374;2023-08-20T08:07:08;9.82;;;8.50;;
12437;SDS011;6283;51.330;12.374;2023-08-20T08:09:35;9.48;;;8.45;;
12437;SDS011;6283;51.330;12.374;2023-08-20T08:12:01;9.07;;;7.97;;
12437;SDS011;6283;51.330;12.374;2023-08-20T08:14:27;8.95;;;8.05;;
12437;SDS011;6283;51.330;12.374;2023-08-20T08:16:53;8.30;;;7.50;;
12437;SDS011;6283;51.330;12.374;2023-08-20T08:19:20;8.52;;;7.53;;
12437;SDS011;6283;51.330;12.374;2023-08-20T08:21:45;8.48;;;7.68;;
12437;SDS011;6283;51.330;12.374;2023-08-20T08:24:12;8.20;;;7.40;;
12437;SDS011;6283;51.330;12.374;2023-08-20T08:26:39;8.02;;;7.22;;
12437;SDS011;6283;51.330;12.374;2023-08-20T08:29:05;7.95;;;7.15;;
12437;SDS011;6283;51.330;12.374;2023-08-20T08:31:32;8.38;;;7.05;;
12437;SDS011;6283;51.330;12.374;2023-08-20T08:33:57;8.75;;;7.63;;
12437;SDS011;6283;51.330;12.374;2023-08-20T08:36:23;8.75;;;7.88;;
12437;SDS011;6283;51.330;12.374;2023-08-20T08:38:52;8.55;;;7.75;;
12437;SDS011;6283;51.330;12.374;2023-08-20T08:41:19;9.13;;;8.23;;
12437;SDS011;6283;51.330;12.374;2023-08-20T08:43:48;7.95;;;7.15;;
12437;SDS011;6283;51.330;12.374;2023-08-20T08:46:14;8.30;;;7.50;;
12437;SDS011;6283;51.330;12.374;2023-08-20T08:48:44;9.07;;;7.90;;
12437;SDS011;6283;51.330;12.374;2023-08-20T08:51:11;8.15;;;7.45;;
12437;SDS011;6283;51.330;12.374;2023-08-20T08:53:38;8.00;;;7.20;;
12437;SDS011;6283;51.330;12.374;2023-08-20T08:56:04;8.00;;;7.30;;
12437;SDS011;6283;51.330;12.374;2023-08-20T08:58:32;8.30;;;7.32;;
12437;SDS011;6283;51.330;12.374;2023-08-20T09:00:58;8.82;;;7.93;;
12437;SDS011;6283;51.330;12.374;2023-08-20T09:03:24;8.43;;;7.55;;
12437;SDS011;6283;51.330;12.374;2023-08-20T09:05:55;8.95;;;8.02;;
12437;SDS011;6283;51.330;12.374;2023-08-20T09:08:28;9.00;;;8.07;;
12437;SDS011;6283;51.330;12.374;2023-08-20T09:10:56;8.32;;;7.55;;
12437;SDS011;6283;51.330;12.374;2023-08-20T09:13:43;8.25;;;7.45;;
12437;SDS011;6283;51.330;12.374;2023-08-20T09:16:12;9.50;;;7.68;;
12437;SDS011;6283;51.330;12.374;2023-08-20T09:18:38;8.43;;;7.47;;
12437;SDS011;6283;51.330;12.374;2023-08-20T09:21:09;7.80;;;7.05;;
12437;SDS011;6283;51.330;12.374;2023-08-20T09:23:35;7.70;;;6.97;;
12437;SDS011;6283;51.330;12.374;2023-08-20T09:26:03;6.70;;;6.10;;
12437;SDS011;6283;51.330;12.374;2023-08-20T09:28:29;7.20;;;6.50;;
12437;SDS011;6283;51.330;12.374;2023-08-20T09:31:09;8.65;;;6.55;;
12437;SDS011;6283;51.330;12.374;2023-08-20T09:33:35;8.88;;;7.40;;
12437;SDS011;6283;51.330;12.374;2023-08-20T09:36:04;8.75;;;7.22;;
12437;SDS011;6283;51.330;12.374;2023-08-20T09:38:36;7.72;;;7.03;;
12437;SDS011;6283;51.330;12.374;2023-08-20T09:41:04;7.55;;;6.85;;
12437;SDS011;6283;51.330;12.374;2023-08-20T09:43:33;10.80;;;8.10;;
12437;SDS011;6283;51.330;12.374;2023-08-20T09:46:03;7.97;;;7.18;;
12437;SDS011;6283;51.330;12.374;2023-08-20T09:48:33;8.50;;;7.70;;
12437;SDS011;6283;51.330;12.374;2023-08-20T09:51:00;7.60;;;6.90;;
12437;SDS011;6283;51.330;12.374;2023-08-20T09:54:34;7.60;;;6.93;;
12437;SDS011;6283;51.330;12.374;2023-08-20T09:56:32;9.13;;;8.23;;
12437;SDS011;6283;51.330;12.374;2023-08-20T09:59:04;10.27;;;8.80;;
12437;SDS011;6283;51.330;12.374;2023-08-20T10:01:29;36.53;;;11.75;;
12437;SDS011;6283;51.330;12.374;2023-08-20T10:03:55;9.65;;;7.55;;
12437;SDS011;6283;51.330;12.374;2023-08-20T10:06:22;7.90;;;7.10;;
12437;SDS011;6283;51.330;12.374;2023-08-20T10:08:50;7.70;;;6.95;;
12437;SDS011;6283;51.330;12.374;2023-08-20T10:11:16;7.43;;;6.72;;
12437;SDS011;6283;51.330;12.374;2023-08-20T10:13:42;7.32;;;6.72;;
12437;SDS011;6283;51.330;12.374;2023-08-20T10:16:08;8.25;;;7.22;;
12437;SDS011;6283;51.330;12.374;2023-08-20T10:18:36;9.00;;;7.10;;
12437;SDS011;6283;51.330;12.374;2023-08-20T10:21:02;6.68;;;6.07;;
12437;SDS011;6283;51.330;12.374;2023-08-20T10:23:30;7.38;;;6.78;;
12437;SDS011;6283;51.330;12.374;2023-08-20T10:26:06;7.55;;;6.78;;
12437;SDS011;6283;51.330;12.374;2023-08-20T10:28:34;7.18;;;6.57;;
12437;SDS011;6283;51.330;12.374;2023-08-20T10:31:12;6.93;;;6.22;;
12437;SDS011;6283;51.330;12.374;2023-08-20T10:36:16;8.70;;;6.60;;
12437;SDS011;6283;51.330;12.374;2023-08-20T10:38:48;7.38;;;6.68;;
12437;SDS011;6283;51.330;12.374;2023-08-20T10:41:14;6.47;;;5.97;;
12437;SDS011;6283;51.330;12.374;2023-08-20T10:43:46;7.07;;;6.47;;
12437;SDS011;6283;51.330;12.374;2023-08-20T10:46:20;6.95;;;6.35;;
12437;SDS011;6283;51.330;12.374;2023-08-20T10:48:54;7.30;;;6.60;;
12437;SDS011;6283;51.330;12.374;2023-08-20T10:56:46;7.70;;;6.95;;
12437;SDS011;6283;51.330;12.374;2023-08-20T11:01:52;8.18;;;7.47;;
12437;SDS011;6283;51.330;12.374;2023-08-20T11:04:21;7.38;;;6.68;;
12437;SDS011;6283;51.330;12.374;2023-08-20T11:06:53;7.28;;;6.57;;
12437;SDS011;6283;51.330;12.374;2023-08-20T11:09:27;7.35;;;6.65;;
12437;SDS011;6283;51.330;12.374;2023-08-20T11:11:54;6.65;;;6.05;;
12437;SDS011;6283;51.330;12.374;2023-08-20T11:14:20;7.63;;;6.90;;
12437;SDS011;6283;51.330;12.374;2023-08-20T11:16:47;7.38;;;6.68;;
12437;SDS011;6283;51.330;12.374;2023-08-20T11:19:14;7.53;;;6.82;;
12437;SDS011;6283;51.330;12.374;2023-08-20T11:21:40;7.70;;;6.82;;
12437;SDS011;6283;51.330;12.374;2023-08-20T11:24:08;7.32;;;6.60;;
12437;SDS011;6283;51.330;12.374;2023-08-20T11:26:34;7.07;;;6.47;;
12437;SDS011;6283;51.330;12.374;2023-08-20T11:29:01;7.57;;;6.78;;
12437;SDS011;6283;51.330;12.374;2023-08-20T11:31:30;7.47;;;6.78;;
12437;SDS011;6283;51.330;12.374;2023-08-20T11:33:56;8.38;;;7.68;;
12437;SDS011;6283;51.330;12.374;2023-08-20T11:36:22;8.95;;;7.40;;
12437;SDS011;6283;51.330;12.374;2023-08-20T11:38:51;7.68;;;6.85;;
12437;SDS011;6283;51.330;12.374;2023-08-20T11:41:18;7.05;;;6.55;;
12437;SDS011;6283;51.330;12.374;2023-08-20T11:43:45;7.20;;;6.60;;
12437;SDS011;6283;51.330;12.374;2023-08-20T11:46:14;7.50;;;6.88;;
12437;SDS011;6283;51.330;12.374;2023-08-20T11:51:26;7.75;;;7.15;;
12437;SDS011;6283;51.330;12.374;2023-08-20T11:53:51;7.57;;;6.88;;
12437;SDS011;6283;51.330;12.374;2023-08-20T11:56:17;7.72;;;7.05;;
12437;SDS011;6283;51.330;12.374;2023-08-20T11:58:43;7.50;;;6.90;;
12437;SDS011;6283;51.330;12.374;2023-08-20T12:01:08;8.02;;;7.25;;
12437;SDS011;6283;51.330;12.374;2023-08-20T12:03:34;7.65;;;6.75;;
12437;SDS011;6283;51.330;12.374;2023-08-20T12:06:18;6.90;;;6.30;;
12437;SDS011;6283;51.330;12.374;2023-08-20T12:08:44;8.50;;;7.80;;
12437;SDS011;6283;51.330;12.374;2023-08-20T12:11:10;7.57;;;6.97;;
12437;SDS011;6283;51.330;12.374;2023-08-20T12:13:36;7.82;;;7.05;;
12437;SDS011;6283;51.330;12.374;2023-08-20T12:16:01;7.70;;;6.82;;
12437;SDS011;6283;51.330;12.374;2023-08-20T12:18:27;7.13;;;6.50;;
12437;SDS011;6283;51.330;12.374;2023-08-20T12:20:53;7.47;;;6.78;;
12437;SDS011;6283;51.330;12.374;2023-08-20T12:23:19;7.10;;;6.50;;
12437;SDS011;6283;51.330;12.374;2023-08-20T12:25:49;8.43;;;7.45;;
12437;SDS011;6283;51.330;12.374;2023-08-20T12:28:16;7.32;;;6.50;;
12437;SDS011;6283;51.330;12.374;2023-08-20T12:30:42;6.60;;;6.00;;
12437;SDS011;6283;51.330;12.374;2023-08-20T12:33:08;7.68;;;6.88;;
12437;SDS011;6283;51.330;12.374;2023-08-20T12:35:34;7.30;;;6.70;;
12437;SDS011;6283;51.330;12.374;2023-08-20T12:38:00;8.43;;;7.30;;
12437;SDS011;6283;51.330;12.374;2023-08-20T12:40:26;7.68;;;6.93;;
12437;SDS011;6283;51.330;12.374;2023-08-20T12:42:51;7.50;;;6.65;;
12437;SDS011;6283;51.330;12.374;2023-08-20T12:45:17;7.28;;;6.55;;
12437;SDS011;6283;51.330;12.374;2023-08-20T12:47:43;6.93;;;6.32;;
12437;SDS011;6283;51.330;12.374;2023-08-20T12:50:08;7.85;;;7.13;;
12437;SDS011;6283;51.330;12.374;2023-08-20T12:52:35;7.28;;;6.70;;
12437;SDS011;6283;51.330;12.374;2023-08-20T12:55:01;7.13;;;6.53;;
12437;SDS011;6283;51.330;12.374;2023-08-20T12:57:27;6.68;;;6.10;;
12437;SDS011;6283;51.330;12.374;2023-08-20T12:59:53;6.75;;;6.20;;
12437;SDS011;6283;51.330;12.374;2023-08-20T13:02:19;6.93;;;6.40;;
12437;SDS011;6283;51.330;12.374;2023-08-20T13:04:45;7.03;;;6.32;;
12437;SDS011;6283;51.330;12.374;2023-08-20T13:07:11;7.28;;;6.57;;
12437;SDS011;6283;51.330;12.374;2023-08-20T13:09:38;7.07;;;6.57;;
12437;SDS011;6283;51.330;12.374;2023-08-20T13:12:04;6.57;;;6.05;;
12437;SDS011;6283;51.330;12.374;2023-08-20T13:14:34;6.72;;;6.13;;
12437;SDS011;6283;51.330;12.374;2023-08-20T13:17:00;7.72;;;6.93;;
12437;SDS011;6283;51.330;12.374;2023-08-20T13:19:26;7.15;;;6.47;;
12437;SDS011;6283;51.330;12.374;2023-08-20T13:21:51;7.25;;;6.55;;
12437;SDS011;6283;51.330;12.374;2023-08-20T13:24:17;6.63;;;6.13;;
12437;SDS011;6283;51.330;12.374;2023-08-20T13:26:43;6.78;;;6.28;;
12437;SDS011;6283;51.330;12.374;2023-08-20T13:29:09;7.10;;;6.30;;
12437;SDS011;6283;51.330;12.374;2023-08-20T13:31:35;6.50;;;6.00;;
12437;SDS011;6283;51.330;12.374;2023-08-20T13:34:01;6.38;;;5.82;;
12437;SDS011;6283;51.330;12.374;2023-08-20T13:36:27;6.60;;;6.10;;
12437;SDS011;6283;51.330;12.374;2023-08-20T13:38:52;6.47;;;5.85;;
12437;SDS011;6283;51.330;12.374;2023-08-20T13:41:18;6.30;;;5.90;;
12437;SDS011;6283;51.330;12.374;2023-08-20T13:43:43;7.00;;;6.35;;
12437;SDS011;6283;51.330;12.374;2023-08-20T13:46:09;6.75;;;6.15;;
12437;SDS011;6283;51.330;12.374;2023-08-20T13:48:35;6.25;;;5.85;;
12437;SDS011;6283;51.330;12.374;2023-08-20T13:51:01;7.20;;;6.63;;
12437;SDS011;6283;51.330;12.374;2023-08-20T13:53:26;7.20;;;6.60;;
12437;SDS011;6283;51.330;12.374;2023-08-20T13:55:52;7.00;;;6.50;;
12437;SDS011;6283;51.330;12.374;2023-08-20T13:58:20;6.65;;;6.07;;
12437;SDS011;6283;51.330;12.374;2023-08-20T14:00:46;7.07;;;6.47;;
12437;SDS011;6283;51.330;12.374;2023-08-20T14:03:11;6.40;;;5.97;;
12437;SDS011;6283;51.330;12.374;2023-08-20T14:05:37;6.97;;;6.38;;
12437;SDS011;6283;51.330;12.374;2023-08-20T14:08:03;6.65;;;6.07;;
12437;SDS011;6283;51.330;12.374;2023-08-20T14:10:28;6.70;;;6.20;;
12437;SDS011;6283;51.330;12.374;2023-08-20T14:12:54;6.68;;;6.18;;
12437;SDS011;6283;51.330;12.374;2023-08-20T14:15:20;6.60;;;6.00;;
12437;SDS011;6283;51.330;12.374;2023-08-20T14:17:45;7.60;;;6.20;;
12437;SDS011;6283;51.330;12.374;2023-08-20T14:20:11;6.95;;;6.25;;
12437;SDS011;6283;51.330;12.374;2023-08-20T14:22:38;6.20;;;5.70;;
12437;SDS011;6283;51.330;12.374;2023-08-20T14:25:04;6.57;;;5.97;;
12437;SDS011;6283;51.330;12.374;2023-08-20T14:27:30;7.00;;;6.30;;
12437;SDS011;6283;51.330;12.374;2023-08-20T14:29:56;6.30;;;5.80;;
12437;SDS011;6283;51.330;12.374;2023-08-20T14:32:21;6.35;;;5.78;;
12437;SDS011;6283;51.330;12.374;2023-08-20T14:34:47;6.15;;;5.65;;
12437;SDS011;6283;51.330;12.374;2023-08-20T14:37:12;6.78;;;6.18;;
12437;SDS011;6283;51.330;12.374;2023-08-20T14:39:38;6.78;;;6.18;;
12437;SDS011;6283;51.330;12.374;2023-08-20T14:42:04;6.32;;;5.78;;
12437;SDS011;6283;51.330;12.374;2023-08-20T14:44:30;7.03;;;6.43;;
12437;SDS011;6283;51.330;12.374;2023-08-20T14:46:55;6.05;;;5.55;;
12437;SDS011;6283;51.330;12.374;2023-08-20T14:49:21;6.45;;;5.95;;
12437;SDS011;6283;51.330;12.374;2023-08-20T14:51:48;5.90;;;5.40;;
12437;SDS011;6283;51.330;12.374;2023-08-20T14:54:13;6.80;;;6.28;;
12437;SDS011;6283;51.330;12.374;2023-08-20T14:56:39;5.93;;;5.50;;
12437;SDS011;6283;51.330;12.374;2023-08-20T14:59:04;6.25;;;5.57;;